Terminal Aerodrome Forecast
Issued by NWS

Home | Current Version | Previous Version | Text Only | Print | Product List | Glossary On
Versions: 1 2 3 4 5 6 7 8 9 10 11 12 13
000
FTUS45 KPSR 240500
TAFBLH
TAF
KBLH 240535Z 2406/2506 27007KT P6SM SCT250
     FM241100 VRB06KT P6SM BKN250
     FM241800 15012KT P6SM BKN250
      TEMPO 2420/2424 15012G22KT=

USA.gov is the U.S. government's official web portal to all federal, state and local government web resources and services.